Time;durP1;ratioP1;P1;durP2;ratioP2;P2;SDS_P1;SDS_P2;PMS_P1;PMS_P2;Temp;Humidity;BMP_temperature;BMP_pressure;BME280_temperature;BME280_humidity;BME280_pressure;Samples;Min_cycle;Max_cycle;Signal;HPM_P1;HPM_P2
2022/04/20 00:02:02;;;;;;;1.63;0.85;;;;;;;21.34;37.28;101392.84;5012297;28;20026;-52
2022/04/20 00:04:29;;;;;;;1.83;0.32;;;;;;;21.26;37.79;101388.66;5005130;28;20022;-55
2022/04/20 00:06:55;;;;;;;0.73;0.50;;;;;;;21.09;38.99;101374.41;4994658;28;20039;-53
2022/04/20 00:09:21;;;;;;;3.05;0.90;;;;;;;20.90;39.14;101381.38;5011921;28;20030;-54
2022/04/20 00:11:47;;;;;;;2.75;0.60;;;;;;;20.93;38.89;101381.69;5011509;28;20101;-53
2022/04/20 00:14:14;;;;;;;1.08;0.65;;;;;;;20.60;39.95;101380.06;5012084;28;20025;-54
2022/04/20 00:16:40;;;;;;;1.73;0.45;;;;;;;20.45;40.26;101393.50;5008414;28;20030;-53
2022/04/20 00:19:06;;;;;;;1.45;0.60;;;;;;;20.44;39.93;101397.31;5010531;28;20079;-54
2022/04/20 00:21:33;;;;;;;2.25;0.60;;;;;;;20.31;42.21;101399.34;5006608;28;20046;-52
2022/04/20 00:24:00;;;;;;;2.00;0.50;;;;;;;20.27;40.67;101395.53;4992265;28;20394;-52
2022/04/20 00:26:26;;;;;;;1.92;0.70;;;;;;;20.26;40.67;101393.03;4997236;28;20022;-53
2022/04/20 00:28:52;;;;;;;1.13;0.70;;;;;;;20.03;40.55;101392.25;5000698;28;20037;-54
2022/04/20 00:31:19;;;;;;;2.40;0.55;;;;;;;19.56;41.41;101391.97;5010994;28;20030;-53
2022/04/20 00:33:45;;;;;;;2.45;0.70;;;;;;;19.64;42.34;101388.00;5011009;28;20452;-53
2022/04/20 00:36:11;;;;;;;2.22;0.60;;;;;;;19.66;42.09;101388.59;5011412;28;20026;-52
2022/04/20 00:38:39;;;;;;;1.50;0.70;;;;;;;19.61;41.97;101383.91;5012715;23;20510;-53
2022/04/20 00:41:06;;;;;;;4.25;0.60;;;;;;;19.69;42.61;101371.78;4995125;28;20424;-54
2022/04/20 00:43:32;;;;;;;1.10;0.50;;;;;;;19.76;42.09;101375.94;5002533;28;20066;-55
2022/04/20 00:46:01;;;;;;;2.72;0.57;;;;;;;19.62;41.79;101380.13;4988583;28;20085;-54
2022/04/20 00:48:27;;;;;;;1.30;0.57;;;;;;;19.47;40.59;101363.59;4989108;28;20150;-54
2022/04/20 00:50:54;;;;;;;3.55;0.73;;;;;;;19.51;41.97;101372.91;4984004;28;20042;-54
2022/04/20 00:53:20;;;;;;;3.15;0.50;;;;;;;19.53;42.11;101371.56;4992278;28;20112;-54
2022/04/20 00:55:46;;;;;;;5.68;0.63;;;;;;;19.59;42.46;101374.38;4991514;28;20030;-54
2022/04/20 00:58:13;;;;;;;1.75;0.57;;;;;;;19.60;42.30;101381.44;4980286;28;20081;-54
2022/04/20 01:00:39;;;;;;;3.22;0.70;;;;;;;19.59;41.61;101377.09;4990568;28;20485;-54
2022/04/20 01:03:06;;;;;;;2.13;0.57;;;;;;;19.66;41.64;101375.84;4969648;28;20062;-53
2022/04/20 01:05:32;;;;;;;1.23;0.50;;;;;;;19.48;43.80;101376.09;5002253;28;20049;-55
2022/04/20 01:07:58;;;;;;;4.30;0.75;;;;;;;19.57;43.20;101376.50;4991647;28;20505;-53
2022/04/20 01:10:25;;;;;;;4.88;1.00;;;;;;;19.41;42.55;101375.47;4983846;28;20113;-53
2022/04/20 01:12:51;;;;;;;3.13;0.73;;;;;;;19.24;42.50;101389.09;4977224;28;20405;-53
2022/04/20 01:15:18;;;;;;;1.80;0.52;;;;;;;19.11;43.52;101384.03;4991864;28;20027;-54
2022/04/20 01:17:45;;;;;;;3.05;0.80;;;;;;;19.18;43.50;101387.38;4991640;28;20101;-54
2022/04/20 01:20:15;;;;;;;1.33;0.65;;;;;;;19.09;43.32;101381.53;4983414;28;20056;-54
2022/04/20 01:22:42;;;;;;;2.80;0.60;;;;;;;18.98;45.40;101377.03;4991471;28;20085;-54
2022/04/20 01:25:09;;;;;;;2.70;0.93;;;;;;;19.01;44.05;101373.84;4991691;28;20023;-55
2022/04/20 01:27:36;;;;;;;2.40;0.70;;;;;;;18.71;43.69;101385.03;4991278;28;20042;-55
2022/04/20 01:30:03;;;;;;;3.60;0.93;;;;;;;18.07;44.18;101371.72;4994047;28;20038;-53
2022/04/20 01:32:30;;;;;;;3.47;0.50;;;;;;;18.00;44.89;101372.94;4995427;28;20058;-52
2022/04/20 01:34:56;;;;;;;1.88;0.60;;;;;;;18.16;41.56;101375.69;4987768;28;20035;-52
2022/04/20 01:37:22;;;;;;;4.55;0.65;;;;;;;17.98;42.58;101370.47;4994315;28;20084;-54
2022/04/20 01:39:49;;;;;;;3.25;0.55;;;;;;;17.94;40.77;101359.31;4983505;28;20129;-51
2022/04/20 01:42:15;;;;;;;1.95;0.80;;;;;;;17.95;42.35;101368.25;4991818;28;20069;-54
2022/04/20 01:44:41;;;;;;;4.75;0.63;;;;;;;17.65;42.03;101374.66;4982012;28;20394;-54
2022/04/20 01:47:08;;;;;;;2.80;0.68;;;;;;;17.56;44.04;101375.31;4994137;28;20545;-53
2022/04/20 01:49:34;;;;;;;4.50;0.80;;;;;;;17.53;43.56;101368.47;4984385;28;20061;-53
2022/04/20 01:52:00;;;;;;;1.67;0.60;;;;;;;17.17;43.58;101374.19;4975475;28;20027;-54
2022/04/20 01:54:26;;;;;;;2.30;0.68;;;;;;;17.12;44.00;101373.00;4993224;28;20398;-54
2022/04/20 01:56:53;;;;;;;3.15;0.80;;;;;;;16.97;44.26;101375.34;4994626;28;20074;-55
2022/04/20 01:59:19;;;;;;;2.75;0.52;;;;;;;16.86;44.22;101371.59;4993602;28;20061;-53
2022/04/20 02:04:31;;;;;;;4.32;0.80;;;;;;;16.67;46.72;101374.63;4994600;28;20040;-53
2022/04/20 02:06:57;;;;;;;1.83;0.50;;;;;;;16.58;46.28;101371.41;4985988;28;20263;-54
2022/04/20 02:09:24;;;;;;;5.57;0.55;;;;;;;16.33;46.89;101371.63;4975102;28;20124;-53
2022/04/20 02:11:50;;;;;;;2.30;0.60;;;;;;;16.32;47.25;101380.75;4980964;28;20030;-55
2022/04/20 02:14:16;;;;;;;2.42;0.65;;;;;;;16.46;46.93;101371.41;4994496;28;20025;-55
2022/04/20 02:16:43;;;;;;;1.38;0.60;;;;;;;16.60;47.46;101369.28;4994273;28;20037;-54
2022/04/20 02:19:09;;;;;;;1.73;0.75;;;;;;;16.55;45.98;101374.59;4992237;28;20375;-55
2022/04/20 02:21:35;;;;;;;1.40;0.50;;;;;;;16.53;47.17;101374.00;4994196;28;20386;-55
2022/04/20 02:24:02;;;;;;;3.78;0.50;;;;;;;16.55;46.16;101372.72;4994286;28;20405;-54
2022/04/20 02:26:28;;;;;;;2.58;0.60;;;;;;;16.49;46.29;101359.28;4993899;28;20081;-55
2022/04/20 02:28:54;;;;;;;1.83;0.50;;;;;;;16.34;46.31;101359.75;4981933;28;20034;-53
2022/04/20 02:31:20;;;;;;;0.80;0.40;;;;;;;16.45;46.63;101358.13;4983159;28;20058;-55
2022/04/20 02:33:47;;;;;;;2.40;0.70;;;;;;;16.19;47.74;101360.19;4985815;28;20174;-54
2022/04/20 02:36:13;;;;;;;3.72;0.70;;;;;;;16.25;48.61;101359.25;4993847;28;20044;-55
2022/04/20 02:38:40;;;;;;;1.05;0.50;;;;;;;16.02;49.04;101357.31;4993765;28;20044;-54
2022/04/20 02:41:08;;;;;;;3.67;0.52;;;;;;;16.08;48.53;101355.56;4993857;28;20027;-55
2022/04/20 02:43:35;;;;;;;5.18;1.00;;;;;;;15.83;49.58;101358.41;4982024;28;20035;-55
2022/04/20 02:46:01;;;;;;;2.90;0.63;;;;;;;15.96;49.37;101358.22;4992190;28;20030;-55
2022/04/20 02:48:28;;;;;;;2.55;0.60;;;;;;;15.97;49.10;101359.88;4988749;28;20137;-55
2022/04/20 02:50:54;;;;;;;2.30;0.80;;;;;;;15.92;49.66;101354.31;4974457;28;20023;-54
2022/04/20 02:53:20;;;;;;;11.05;1.05;;;;;;;15.72;49.67;101357.31;4974624;28;20088;-55
2022/04/20 02:55:46;;;;;;;2.58;0.57;;;;;;;15.79;49.15;101351.81;4986324;28;20022;-54
2022/04/20 02:58:13;;;;;;;3.63;0.73;;;;;;;15.67;49.59;101361.75;4992682;28;20092;-55
2022/04/20 03:00:40;;;;;;;2.83;0.93;;;;;;;15.59;49.11;101358.25;4986657;28;20089;-55
2022/04/20 03:03:06;;;;;;;2.38;0.50;;;;;;;15.51;49.44;101361.25;4977443;28;20039;-54
2022/04/20 03:05:32;;;;;;;3.95;1.02;;;;;;;15.31;49.51;101360.66;4990683;28;20156;-55
2022/04/20 03:07:59;;;;;;;2.72;0.90;;;;;;;15.24;49.44;101365.31;4989628;28;20023;-55
2022/04/20 03:10:25;;;;;;;3.65;1.23;;;;;;;15.26;49.16;101358.63;4973719;28;20023;-54
2022/04/20 03:12:52;;;;;;;4.10;0.82;;;;;;;15.23;48.65;101358.28;4986153;28;20031;-54
2022/04/20 03:15:18;;;;;;;4.45;0.73;;;;;;;15.14;49.52;101359.59;4993417;28;20027;-54
2022/04/20 03:17:45;;;;;;;2.72;0.80;;;;;;;15.13;50.97;101368.75;4993122;28;20019;-54
2022/04/20 03:20:11;;;;;;;5.53;1.08;;;;;;;15.10;50.44;101367.31;4989647;28;20037;-54
2022/04/20 03:22:38;;;;;;;2.97;1.02;;;;;;;15.15;50.26;101380.13;4973829;28;20034;-54
2022/04/20 03:25:05;;;;;;;1.77;0.65;;;;;;;15.31;52.98;101385.75;4973686;28;20027;-54
2022/04/20 03:27:31;;;;;;;2.33;0.90;;;;;;;15.13;54.41;101379.53;4973409;28;20109;-55
2022/04/20 03:29:57;;;;;;;3.88;0.70;;;;;;;14.95;55.17;101389.25;4987559;28;20098;-54
2022/04/20 03:32:24;;;;;;;5.97;1.10;;;;;;;14.89;55.83;101398.22;4993017;28;20120;-54
2022/04/20 03:34:50;;;;;;;2.63;0.90;;;;;;;14.97;53.39;101397.09;4992986;28;20145;-54
2022/04/20 03:37:16;;;;;;;2.13;0.80;;;;;;;14.95;53.39;101402.72;4992984;28;20117;-54
2022/04/20 03:39:44;;;;;;;2.60;0.77;;;;;;;14.84;53.57;101398.06;4992075;28;20045;-54
2022/04/20 03:42:10;;;;;;;1.63;0.73;;;;;;;14.85;53.44;101398.88;4993056;28;20026;-54
2022/04/20 03:44:36;;;;;;;3.38;0.70;;;;;;;14.88;52.02;101404.66;4992762;28;20026;-55
2022/04/20 03:47:03;;;;;;;2.78;0.80;;;;;;;14.72;52.38;101400.63;4989061;28;20022;-54
2022/04/20 03:49:30;;;;;;;2.85;0.77;;;;;;;14.51;53.18;101415.28;4973604;28;20024;-53
2022/04/20 03:51:57;;;;;;;5.13;0.88;;;;;;;14.50;53.38;101413.66;4977088;28;20059;-54
2022/04/20 03:54:23;;;;;;;3.38;0.85;;;;;;;14.51;53.28;101412.59;4992286;28;20116;-53
2022/04/20 03:57:04;;;;;;;3.90;0.90;;;;;;;14.40;53.91;101421.34;4991284;28;20028;-55
2022/04/20 03:59:32;;;;;;;3.47;1.00;;;;;;;14.51;53.60;101428.75;4993022;28;20049;-54
2022/04/20 04:01:59;;;;;;;3.15;0.95;;;;;;;14.35;54.41;101421.16;4991229;28;20029;-54
2022/04/20 04:04:26;;;;;;;2.45;0.90;;;;;;;14.33;54.54;101423.25;4991552;28;20049;-55
2022/04/20 04:06:53;;;;;;;3.70;1.00;;;;;;;14.36;54.90;101427.38;4991067;28;20466;-54
2022/04/20 04:09:20;;;;;;;2.40;0.90;;;;;;;14.33;55.13;101423.25;4991371;28;20034;-54
2022/04/20 04:11:46;;;;;;;4.35;0.80;;;;;;;14.42;55.07;101430.03;4991605;28;20125;-54
2022/04/20 04:14:12;;;;;;;1.85;1.08;;;;;;;14.42;55.14;101431.91;4992712;28;20026;-54
2022/04/20 04:16:39;;;;;;;4.03;1.10;;;;;;;14.34;55.53;101429.47;4991240;28;20034;-55
2022/04/20 04:19:08;;;;;;;3.70;1.00;;;;;;;14.39;55.53;101427.78;4992249;28;20027;-55
2022/04/20 04:21:39;;;;;;;6.75;1.15;;;;;;;14.31;56.04;101432.59;4992245;28;20044;-54
2022/04/20 04:24:34;;;;;;;6.25;1.02;;;;;;;14.14;56.75;101434.97;4991768;28;20515;-53
2022/04/20 04:26:56;;;;;;;3.40;1.00;;;;;;;13.99;56.89;101443.31;4991201;28;20038;-53
2022/04/20 04:29:26;;;;;;;6.22;1.30;;;;;;;13.80;57.45;101445.03;4973020;28;20486;-53
2022/04/20 04:31:52;;;;;;;3.30;0.90;;;;;;;13.79;57.84;101451.47;4972328;28;20031;-54
2022/04/20 04:34:18;;;;;;;4.07;0.88;;;;;;;13.87;57.40;101461.97;4992294;28;20475;-53
2022/04/20 04:36:45;;;;;;;4.25;0.93;;;;;;;13.70;58.08;101467.00;4991628;28;20076;-53
2022/04/20 04:39:11;;;;;;;2.38;0.90;;;;;;;13.74;58.33;101462.03;4989839;28;20141;-53
2022/04/20 04:41:37;;;;;;;4.20;1.00;;;;;;;13.75;58.23;101458.31;4991265;28;20077;-53
2022/04/20 04:44:04;;;;;;;4.45;1.10;;;;;;;13.72;58.33;101454.19;4992342;28;20030;-53
2022/04/20 04:49:14;;;;;;;1.77;0.82;;;;;;;13.74;58.61;101462.03;4992433;28;20551;-52
2022/04/20 04:51:41;;;;;;;4.80;1.00;;;;;;;13.80;58.26;101458.50;4990346;28;20030;-52
2022/04/20 04:54:08;;;;;;;2.08;0.80;;;;;;;13.73;58.14;101460.38;4990873;28;20030;-53
2022/04/20 04:56:34;;;;;;;3.78;1.10;;;;;;;13.59;58.72;101450.69;4993168;28;20022;-53
2022/04/20 04:59:00;;;;;;;2.80;0.90;;;;;;;13.69;58.65;101456.47;4995199;28;20030;-53
2022/04/20 05:01:27;;;;;;;1.85;0.80;;;;;;;13.65;58.57;101447.16;4994386;28;20249;-53
2022/04/20 05:03:56;;;;;;;3.60;1.20;;;;;;;13.59;58.85;101453.38;4994002;28;20030;-54
2022/04/20 05:06:22;;;;;;;3.80;1.23;;;;;;;13.55;58.59;101446.75;4993849;28;20027;-54
2022/04/20 05:08:49;;;;;;;2.08;0.82;;;;;;;13.34;59.70;101446.00;4995126;28;20096;-53
2022/04/20 05:11:15;;;;;;;3.10;1.20;;;;;;;13.35;59.64;101438.75;4985031;28;20022;-54
2022/04/20 05:13:41;;;;;;;4.70;1.25;;;;;;;13.51;59.29;101446.38;4994998;28;20050;-55
2022/04/20 05:16:08;;;;;;;3.50;0.90;;;;;;;13.52;58.74;101436.44;4993812;28;20034;-54
2022/04/20 05:18:35;;;;;;;4.85;0.90;;;;;;;13.55;58.89;101431.47;4995130;28;20030;-53
2022/04/20 05:21:01;;;;;;;5.10;1.20;;;;;;;13.53;58.79;101433.53;4992902;28;20030;-54
2022/04/20 05:23:27;;;;;;;3.75;0.80;;;;;;;13.52;58.95;101425.69;4993541;28;20088;-53
2022/04/20 05:25:53;;;;;;;6.90;1.17;;;;;;;13.47;59.18;101419.06;4993853;28;20050;-54
2022/04/20 05:28:20;;;;;;;1.70;0.82;;;;;;;13.68;57.88;101427.91;4994974;28;20033;-53
2022/04/20 05:30:46;;;;;;;4.50;1.00;;;;;;;13.54;58.75;101419.03;4992773;28;20026;-54
2022/04/20 05:33:12;;;;;;;3.65;1.10;;;;;;;13.69;58.70;101427.69;4994696;28;20042;-54
2022/04/20 05:35:39;;;;;;;2.80;1.00;;;;;;;13.56;58.85;101429.63;4993503;28;20018;-54
2022/04/20 05:43:35;;;;;;;4.13;1.10;;;;;;;13.27;60.43;101423.69;4993660;28;20116;-53
2022/04/20 05:46:01;;;;;;;5.93;1.30;;;;;;;13.13;61.11;101430.06;4995126;28;20041;-54
2022/04/20 05:48:27;;;;;;;4.22;1.15;;;;;;;13.11;61.29;101429.47;4993365;28;20108;-54
2022/04/20 05:50:53;;;;;;;4.32;1.08;;;;;;;12.94;61.44;101429.88;4994750;28;20081;-53
2022/04/20 05:53:20;;;;;;;3.05;1.00;;;;;;;12.89;61.40;101423.47;5007859;28;20088;-54
2022/04/20 05:55:46;;;;;;;3.10;1.15;;;;;;;12.94;61.31;101426.38;4994372;28;20363;-53
2022/04/20 05:58:12;;;;;;;5.60;1.33;;;;;;;12.85;61.62;101428.41;4993458;28;20042;-54
2022/04/20 06:00:39;;;;;;;4.93;1.52;;;;;;;12.85;61.57;101424.91;4994721;28;20026;-54
2022/04/20 06:03:05;;;;;;;5.15;1.00;;;;;;;12.79;61.57;101415.81;4991526;28;20078;-55
2022/04/20 06:05:31;;;;;;;2.08;1.13;;;;;;;12.86;61.93;101416.63;4994777;28;20141;-54
2022/04/20 06:07:57;;;;;;;7.35;1.25;;;;;;;12.84;61.67;101415.19;4992146;28;20026;-55
2022/04/20 06:10:24;;;;;;;3.63;1.00;;;;;;;12.78;61.88;101400.75;4993814;28;20035;-54
2022/04/20 06:12:50;;;;;;;5.93;1.08;;;;;;;12.69;61.86;101394.72;4993982;28;20035;-54
2022/04/20 06:15:17;;;;;;;2.67;0.90;;;;;;;12.69;61.60;101397.41;4993862;28;20044;-54
2022/04/20 06:17:44;;;;;;;3.85;1.23;;;;;;;12.65;62.02;101395.34;4993755;28;20034;-55
2022/04/20 06:20:11;;;;;;;2.25;1.10;;;;;;;12.46;63.05;101396.16;4993070;28;20030;-55
2022/04/20 06:22:37;;;;;;;5.00;1.50;;;;;;;12.22;63.53;101395.72;4993963;28;20022;-54
2022/04/20 06:25:03;;;;;;;2.30;0.90;;;;;;;11.92;64.40;101389.03;4992343;28;20034;-55
2022/04/20 06:27:31;;;;;;;7.22;1.55;;;;;;;11.68;65.16;101385.81;4994081;28;20034;-55
2022/04/20 06:29:57;;;;;;;6.13;1.15;;;;;;;12.03;64.04;101386.56;4992435;28;20109;-55
2022/04/20 06:32:24;;;;;;;2.33;1.13;;;;;;;11.86;64.68;101378.06;4993677;28;20034;-53
2022/04/20 06:34:54;;;;;;;15.98;9.35;;;;;;;11.20;66.45;101367.00;4993137;28;20494;-55
2022/04/20 06:37:24;;;;;;;13.13;6.25;;;;;;;11.09;67.59;101383.63;4993688;28;20022;-54
2022/04/20 06:39:51;;;;;;;10.20;3.40;;;;;;;11.22;66.92;101381.03;4991344;28;20133;-54
2022/04/20 06:42:20;;;;;;;6.35;2.28;;;;;;;11.17;67.09;101371.94;4993530;28;20382;-53
2022/04/20 06:44:47;;;;;;;6.68;1.58;;;;;;;11.32;66.57;101369.94;4992284;28;20033;-54
2022/04/20 06:47:13;;;;;;;4.60;1.38;;;;;;;11.54;65.42;101379.53;4991674;28;20386;-53
2022/04/20 06:49:39;;;;;;;4.35;1.30;;;;;;;11.43;65.87;101382.78;4993706;28;20022;-54
2022/04/20 07:00:19;;;;;;;7.10;1.58;;;;;;;9.44;73.48;101406.84;4976648;28;20537;-54
2022/04/20 07:02:45;;;;;;;6.95;1.10;;;;;;;9.13;74.83;101407.81;4992386;28;20037;-54
2022/04/20 07:05:12;;;;;;;3.03;1.35;;;;;;;9.30;74.59;101396.97;4991804;28;20068;-54
2022/04/20 07:07:38;;;;;;;5.78;1.40;;;;;;;9.14;75.42;101401.47;4992928;28;20045;-53
2022/04/20 07:10:05;;;;;;;5.15;1.20;;;;;;;9.13;75.45;101399.81;4992026;28;20065;-53
2022/04/20 07:12:32;;;;;;;5.47;1.20;;;;;;;9.42;74.20;101398.16;4991865;28;20076;-53
2022/04/20 07:14:58;;;;;;;4.47;1.75;;;;;;;9.40;74.27;101400.19;4992811;28;20105;-52
2022/04/20 07:17:24;;;;;;;3.97;1.38;;;;;;;9.51;73.85;101392.53;4991393;28;20504;-53
2022/04/20 07:19:50;;;;;;;6.38;1.45;;;;;;;9.77;72.72;101397.41;4992462;28;20046;-52
2022/04/20 07:22:16;;;;;;;2.97;1.20;;;;;;;9.33;74.35;101399.25;4991803;28;20109;-52
2022/04/20 07:24:42;;;;;;;3.63;1.20;;;;;;;9.01;75.88;101395.94;4992745;28;20117;-52
2022/04/20 07:27:09;;;;;;;3.03;1.20;;;;;;;8.84;76.93;101410.44;4991229;28;20033;-53
2022/04/20 07:29:35;;;;;;;6.53;1.40;;;;;;;8.80;77.30;101404.63;4992681;28;20473;-53
2022/04/20 07:32:01;;;;;;;3.83;1.60;;;;;;;8.68;78.00;101411.41;4991463;28;20026;-53
2022/04/20 07:34:27;;;;;;;3.70;1.15;;;;;;;8.70;78.19;101417.38;4992741;28;20030;-54
2022/04/20 07:36:54;;;;;;;3.47;1.13;;;;;;;8.73;78.35;101412.53;4991577;28;20027;-53
2022/04/20 07:39:20;;;;;;;5.78;1.65;;;;;;;8.81;78.21;101416.13;4992458;28;20050;-53
2022/04/20 07:41:46;;;;;;;3.95;1.20;;;;;;;9.07;76.70;101415.72;4991632;28;20430;-53
2022/04/20 07:44:12;;;;;;;5.90;1.63;;;;;;;9.22;75.87;101419.25;4992283;28;20081;-53
2022/04/20 07:46:38;;;;;;;5.53;1.45;;;;;;;9.25;75.29;101424.22;4991356;28;20026;-53
2022/04/20 07:50:18;;;;;;;4.85;1.30;;;;;;;9.42;75.11;101424.88;4992285;28;20206;-52
2022/04/20 07:51:50;;;;;;;7.65;1.60;;;;;;;9.53;74.07;101421.72;4991190;28;20098;-52
2022/04/20 07:54:17;;;;;;;5.38;1.77;;;;;;;9.77;72.80;101416.13;4990859;28;20022;-53
2022/04/20 07:56:43;;;;;;;7.18;1.65;;;;;;;9.83;72.34;101419.03;4992333;28;20026;-53
2022/04/20 07:59:09;;;;;;;1.88;0.95;;;;;;;9.92;71.50;101413.41;4991057;28;20081;-53
2022/04/20 08:01:35;;;;;;;6.05;1.08;;;;;;;10.03;71.11;101420.09;4992698;28;20046;-53
2022/04/20 08:04:02;;;;;;;3.90;1.33;;;;;;;10.14;70.12;101430.31;4991222;28;20029;-52
2022/04/20 08:06:30;;;;;;;6.63;1.20;;;;;;;10.05;70.77;101428.78;4992124;28;20046;-53
2022/04/20 08:08:57;;;;;;;8.07;1.75;;;;;;;10.14;71.85;101445.53;4990945;28;20449;-53
2022/04/20 08:11:23;;;;;;;2.67;0.95;;;;;;;9.89;71.65;101437.84;4991446;28;20084;-52
2022/04/20 08:16:34;;;;;;;4.68;1.08;;;;;;;10.00;71.61;101439.22;4991039;28;20049;-51
2022/04/20 08:19:00;;;;;;;5.90;1.08;;;;;;;10.04;71.13;101449.31;4992450;28;20030;-52
2022/04/20 08:21:26;;;;;;;2.65;1.25;;;;;;;10.09;70.99;101456.78;4990603;28;20139;-52
2022/04/20 08:23:53;;;;;;;3.90;0.88;;;;;;;10.17;71.10;101463.91;4990769;28;20053;-52
2022/04/20 08:26:19;;;;;;;2.55;1.08;;;;;;;9.97;71.84;101466.31;4991847;28;20027;-54
2022/04/20 08:28:46;;;;;;;4.05;1.20;;;;;;;9.82;72.50;101474.34;4991696;28;20474;-53
2022/04/20 08:31:15;;;;;;;2.28;1.38;;;;;;;9.76;73.38;101478.59;4990956;28;20054;-54
2022/04/20 08:33:42;;;;;;;3.58;1.35;;;;;;;9.39;74.83;101470.69;5001313;23;20030;-53
2022/04/20 08:36:11;;;;;;;2.65;1.13;;;;;;;9.96;73.38;101462.00;4975185;28;20094;-53
2022/04/20 08:38:38;;;;;;;2.45;1.15;;;;;;;9.90;73.33;101458.22;4976529;28;20037;-54
2022/04/20 08:41:05;;;;;;;3.42;1.13;;;;;;;9.70;74.30;101447.25;4975497;28;20035;-54
2022/04/20 08:43:32;;;;;;;3.55;1.70;;;;;;;9.92;73.42;101448.16;4976155;28;20027;-54
2022/04/20 08:46:02;;;;;;;2.17;1.08;;;;;;;10.03;73.01;101444.19;4974673;28;20374;-53
2022/04/20 08:48:29;;;;;;;2.38;1.00;;;;;;;10.20;72.23;101440.25;4976417;28;20109;-53
2022/04/20 08:50:56;;;;;;;3.00;1.15;;;;;;;10.07;73.17;101440.13;4974939;28;20102;-54
2022/04/20 08:53:24;;;;;;;4.43;1.40;;;;;;;10.09;73.05;101435.41;4976323;28;20031;-53
2022/04/20 08:57:15;;;;;;;3.47;1.50;;;;;;;10.04;72.87;101430.59;4974625;28;20035;-53
2022/04/20 08:58:38;;;;;;;4.50;1.40;;;;;;;10.23;71.79;101428.38;4975616;28;20515;-54
2022/04/20 09:01:04;;;;;;;3.78;1.40;;;;;;;10.45;71.05;101435.41;4975467;28;20065;-53
2022/04/20 09:03:33;;;;;;;4.85;1.33;;;;;;;10.38;71.19;101431.81;4976094;28;20039;-53
2022/04/20 09:06:01;;;;;;;3.85;1.30;;;;;;;10.54;71.28;101431.56;4974688;28;20043;-53
2022/04/20 09:08:27;;;;;;;6.00;1.60;;;;;;;10.55;71.23;101424.41;4975954;28;20058;-54
2022/04/20 09:10:54;;;;;;;4.30;1.17;;;;;;;10.55;71.78;101419.06;4974368;28;20034;-54
2022/04/20 09:13:33;;;;;;;3.88;1.25;;;;;;;10.58;72.20;101407.94;4975617;28;20046;-53
2022/04/20 09:16:06;;;;;;;3.22;1.58;;;;;;;10.68;72.76;101405.78;4974853;28;20038;-53
2022/04/20 09:18:33;;;;;;;5.70;1.50;;;;;;;10.72;73.72;101401.69;4975483;28;20026;-53
2022/04/20 09:21:09;;;;;;;7.45;1.58;;;;;;;10.83;73.29;101403.84;4974538;28;20545;-54
2022/04/20 09:23:36;;;;;;;5.35;1.63;;;;;;;10.97;72.97;101403.94;4975876;28;20030;-51
2022/04/20 09:26:14;;;;;;;5.35;1.90;;;;;;;11.09;72.78;101395.16;4971166;28;20031;-54
2022/04/20 09:29:02;;;;;;;2.35;1.15;;;;;;;11.18;72.97;101403.88;4975353;28;20019;-54
2022/04/20 09:31:44;;;;;;;6.18;1.58;;;;;;;11.48;72.29;101412.50;4969191;28;20030;-54
2022/04/20 09:34:32;;;;;;;3.70;1.50;;;;;;;11.60;72.29;101394.00;4975227;28;20113;-54
2022/04/20 09:36:59;;;;;;;5.07;1.40;;;;;;;11.59;71.92;101409.28;4974075;28;20081;-54
2022/04/20 09:39:31;;;;;;;3.72;1.33;;;;;;;11.76;71.35;101398.22;4975412;28;20146;-53
2022/04/20 09:42:02;;;;;;;6.40;1.42;;;;;;;11.67;71.67;101400.25;4973737;28;20412;-53
2022/04/20 09:44:31;;;;;;;6.00;1.48;;;;;;;11.87;70.52;101398.50;4975110;28;20043;-54
2022/04/20 09:49:52;;;;;;;6.93;1.40;;;;;;;11.96;70.21;101403.69;4974783;28;20038;-51
2022/04/20 09:52:18;;;;;;;;;;;;;;;12.01;69.70;101403.91;4975622;28;20031;-54
2022/04/20 09:54:55;;;;;;;5.57;1.60;;;;;;;12.04;69.27;101406.19;4972078;28;19964;-54
2022/04/20 09:57:22;;;;;;;11.18;1.63;;;;;;;12.13;69.67;101410.34;4974805;28;20073;-53
2022/04/20 10:00:00;;;;;;;5.25;1.58;;;;;;;12.12;69.72;101411.38;4973973;28;20030;-53
2022/04/20 10:02:28;;;;;;;5.85;1.60;;;;;;;12.17;69.43;101406.25;4974867;28;20081;-52
2022/04/20 10:04:56;;;;;;;8.30;2.15;;;;;;;12.21;70.21;101403.97;4974789;28;20114;-54
2022/04/20 10:07:22;;;;;;;3.20;1.60;;;;;;;12.22;69.45;101403.78;4973103;28;20025;-52
2022/04/20 10:09:48;;;;;;;7.85;1.65;;;;;;;12.38;68.90;101408.78;4974681;28;20030;-53
2022/04/20 10:12:18;;;;;;;6.40;1.45;;;;;;;12.39;70.43;101413.09;4973950;28;20057;-53
2022/04/20 10:17:43;;;;;;;4.03;1.25;;;;;;;12.40;70.04;101417.44;4973838;28;20177;-54
2022/04/20 10:20:11;;;;;;;7.63;1.65;;;;;;;12.37;69.93;101412.47;4974651;28;20031;-53
2022/04/20 10:22:39;;;;;;;4.75;1.33;;;;;;;12.38;69.83;101421.34;4973409;28;20443;-54
2022/04/20 10:25:06;;;;;;;7.35;1.30;;;;;;;12.38;69.85;101410.59;4974264;28;20069;-53
2022/04/20 10:27:35;;;;;;;4.38;1.30;;;;;;;12.41;69.58;101407.53;4972970;28;20031;-53
2022/04/20 10:30:13;;;;;;;5.88;1.30;;;;;;;12.37;69.78;101411.63;4973270;28;20031;-54
2022/04/20 10:32:51;;;;;;;4.10;1.15;;;;;;;12.33;69.81;101403.19;4974210;28;20561;-54
2022/04/20 10:35:21;;;;;;;3.22;1.25;;;;;;;12.37;68.96;101400.91;4973119;28;20042;-53
2022/04/20 10:38:12;;;;;;;4.72;1.15;;;;;;;12.57;68.90;101403.63;4994275;23;20046;-54
2022/04/20 10:41:18;;;;;;;5.53;1.48;;;;;;;12.54;68.47;101402.16;4993906;28;20106;-53
2022/04/20 10:43:45;;;;;;;7.35;1.55;;;;;;;12.52;67.88;101403.41;4951123;29;20470;-53
2022/04/20 10:46:18;;;;;;;4.47;1.27;;;;;;;12.42;68.37;101398.44;4986142;28;20125;-54
2022/04/20 10:48:58;;;;;;;5.00;1.40;;;;;;;12.38;68.55;101397.19;4992034;28;20041;-53
2022/04/20 10:51:33;;;;;;;4.32;1.50;;;;;;;12.32;68.28;101411.41;4993501;28;20101;-54
2022/04/20 10:54:18;;;;;;;6.85;1.63;;;;;;;12.32;68.60;101406.03;4973546;28;20397;-54
2022/04/20 10:57:05;;;;;;;4.60;1.60;;;;;;;12.36;68.56;101402.75;4986795;28;20425;-54
2022/04/20 10:59:32;;;;;;;4.82;1.58;;;;;;;12.40;68.43;101398.63;4982421;28;20031;-53
2022/04/20 11:01:59;;;;;;;5.30;1.45;;;;;;;12.21;68.60;101402.09;4990532;28;20044;-54
2022/04/20 11:04:39;;;;;;;5.43;2.10;;;;;;;12.29;68.59;101398.41;4973880;28;20031;-53
2022/04/20 11:07:08;;;;;;;3.95;1.52;;;;;;;12.24;68.27;101407.06;4972424;28;20039;-54
2022/04/20 11:09:46;;;;;;;3.22;1.10;;;;;;;12.10;68.35;101408.06;4973914;28;20034;-53
2022/04/20 11:21:06;;;;;;;4.35;1.08;;;;;;;11.99;68.78;101400.59;4970721;28;20042;-53
2022/04/20 11:23:54;;;;;;;5.07;1.42;;;;;;;11.89;69.09;101403.69;4973013;28;20042;-54
2022/04/20 11:26:26;;;;;;;2.75;1.50;;;;;;;11.86;68.79;101402.22;4956735;28;20035;-53
2022/04/20 11:28:53;;;;;;;1.85;1.20;;;;;;;11.86;68.76;101402.22;4954898;28;20023;-53
2022/04/20 11:31:19;;;;;;;3.33;1.52;;;;;;;11.77;69.35;101398.03;4960261;28;20023;-52
2022/04/20 11:33:46;;;;;;;4.43;1.83;;;;;;;11.89;69.48;101401.00;4970250;28;20482;-53
2022/04/20 11:36:14;;;;;;;4.57;1.42;;;;;;;11.84;70.20;101398.91;4968464;28;20022;-54
2022/04/20 11:38:45;;;;;;;4.63;1.58;;;;;;;11.83;70.72;101405.31;4965033;28;20050;-54
2022/04/20 11:41:13;;;;;;;9.60;2.42;;;;;;;11.81;71.68;101401.97;4973379;28;20426;-54
2022/04/20 11:43:40;;;;;;;4.82;1.70;;;;;;;11.73;72.35;101402.13;4970428;28;20025;-52
2022/04/20 11:46:08;;;;;;;5.65;1.42;;;;;;;11.71;72.07;101401.47;4964321;28;20394;-55
2022/04/20 11:48:35;;;;;;;4.55;1.58;;;;;;;11.81;72.89;101401.97;4972466;28;20023;-54
2022/04/20 11:51:07;;;;;;;5.75;1.67;;;;;;;11.83;72.28;101402.63;4978829;28;20026;-53
2022/04/20 11:53:41;;;;;;;6.85;1.75;;;;;;;11.85;72.83;101402.41;4992997;28;20018;-53
2022/04/20 11:58:53;;;;;;;4.68;1.60;;;;;;;12.00;73.57;101399.59;5400905;23;20164;-56
2022/04/20 12:01:25;;;;;;;3.80;1.80;;;;;;;11.92;73.72;101399.75;5027960;28;20489;-55
2022/04/20 12:03:51;;;;;;;6.03;1.73;;;;;;;12.11;73.88;101401.69;5027554;28;20034;-57
2022/04/20 12:06:18;;;;;;;6.28;1.70;;;;;;;11.95;74.24;101394.00;5032155;28;20076;-56
2022/04/20 12:08:47;;;;;;;6.22;1.90;;;;;;;12.12;73.60;101404.16;5031847;28;20120;-56
2022/04/20 12:11:15;;;;;;;5.22;1.52;;;;;;;12.15;73.04;101403.72;5032053;28;20592;-58